This is the latest recevied weather packets stored in our database for station/object W7BL. If no packets are shown the sender has not sent any weather packets the latest 10 day(s).
| Time | Temp. | Humidity | Pressure | Rain* | Wind** | Luminosity | Snow |
|---|---|---|---|---|---|---|---|
| 1777800444 | 9.44° C | 70% | - | 0 mm | - | - | - |
| 1777800141 | 9.44° C | 69% | - | 0 mm | - | - | - |
| 1777799836 | 10° C | 68% | - | 0 mm | - | - | - |
| 1777799534 | 10° C | 68% | - | 0 mm | - | - | - |
| 1777799229 | 10° C | 67% | - | 0 mm | - | - | - |
| 1777798926 | 10° C | 68% | - | 0 mm | - | - | - |
| 1777798621 | 10° C | 67% | - | 0 mm | - | - | - |
| 1777798319 | 10.56° C | 66% | - | 0 mm | - | - | - |
| 1777798015 | 10° C | 67% | - | 0 mm | - | - | - |
| 1777797713 | 10.56° C | 65% | - | 0 mm | - | - | - |
| 1777797410 | 11.11° C | 64% | - | 0 mm | - | - | - |
| 1777797107 | 10.56° C | 66% | - | 0 mm | - | - | - |
| 1777796804 | 10.56° C | 67% | - | 0 mm | - | - | - |
| 1777796502 | 10.56° C | 66% | - | 0 mm | - | - | - |
| 1777796202 | 11.11° C | 66% | - | 0 mm | - | - | - |
| 1777795898 | 11.11° C | 64% | - | 0 mm | - | - | - |
| 1777795594 | 11.11° C | 66% | - | 0 mm | - | - | - |
| 1777795292 | 11.11° C | 65% | - | 0 mm | - | - | - |
| 1777794988 | 11.11° C | 66% | - | 0 mm | - | - | - |
| 1777794685 | 11.67° C | 65% | - | 0 mm | - | - | - |
| 1777794381 | 11.67° C | 64% | - | 0 mm | - | - | - |
| 1777794076 | 11.67° C | 63% | - | 0 mm | - | - | - |
| 1777793773 | 11.67° C | 64% | - | 0 mm | - | - | - |
| 1777793472 | 11.67° C | 64% | - | 0 mm | - | - | - |
| 1777793168 | 12.22° C | 61% | - | 0 mm | - | - | - |
* Rain latest hour (hover to see other rain measurements)
** Current wind speed in m/s (hover to see current wind gust speed)